Airport View

Enter ICAO identifier to see the current METAR for that AWOS.

KFNL for example

KS71 302314Z AUTO 15005KT 10SM 36/03 A3002

1 Aug 2014 05:43

Frequency: 118.35

Phone: 406-357-3453

Other Area AWOS: KHVR - CWEH - CWOE - CWVP

TAF KHVR 312342Z 0100/0124 31012KT P6SM VCTS SCT080CB BKN120 FM010200 05005KT P6SM SCT120 BKN150 FM010600 VRB04KT P6SM FEW150 FM012100 08007KT P6SM SCT080 SCT120